createdAt,value
2023-04-18T00:04:50.723Z,38.06
2023-04-18T00:09:53.690Z,38.28
2023-04-18T00:14:58.878Z,38.35
2023-04-18T00:20:04.928Z,38.37
2023-04-18T00:25:08.743Z,38.71
2023-04-18T00:30:12.005Z,38.73
2023-04-18T00:35:15.025Z,38.57
2023-04-18T00:40:17.950Z,38.90
2023-04-18T00:45:21.158Z,38.90
2023-04-18T00:50:24.787Z,38.94
2023-04-18T00:55:29.307Z,38.97
2023-04-18T01:00:32.648Z,39.36
2023-04-18T01:05:36.510Z,39.35
2023-04-18T01:10:40.859Z,39.76
2023-04-18T01:15:49.142Z,40.11
2023-04-18T01:20:54.815Z,40.36
2023-04-18T01:25:58.069Z,40.66
2023-04-18T01:31:01.892Z,40.55
2023-04-18T01:36:05.170Z,40.33
2023-04-18T01:41:08.156Z,40.86
2023-04-18T01:46:11.069Z,41.47
2023-04-18T01:51:14.261Z,41.50
2023-04-18T01:56:17.298Z,42.75
2023-04-18T02:01:20.846Z,43.10
2023-04-18T02:06:23.906Z,44.04
2023-04-18T02:11:26.911Z,43.96
2023-04-18T02:16:29.937Z,43.91
2023-04-18T02:21:33.102Z,44.12
2023-04-18T02:26:36.279Z,43.43
2023-04-18T02:31:40.809Z,42.95
2023-04-18T02:36:43.857Z,43.06
2023-04-18T02:42:05.021Z,43.08
2023-04-18T02:47:07.855Z,42.59
2023-04-18T02:52:14.744Z,43.22
2023-04-18T02:57:17.671Z,42.67
2023-04-18T03:02:39.655Z,42.49
2023-04-18T03:08:11.489Z,40.90
2023-04-18T03:13:15.455Z,41.24
2023-04-18T03:18:19.292Z,42.65
2023-04-18T03:23:22.391Z,42.08
2023-04-18T03:28:25.322Z,41.93
2023-04-18T03:33:29.815Z,40.92
2023-04-18T03:38:42.743Z,42.64
2023-04-18T03:43:45.760Z,41.28
2023-04-18T03:48:48.731Z,40.95
2023-04-18T03:53:51.794Z,39.96
2023-04-18T03:58:54.856Z,39.03
2023-04-18T04:04:17.086Z,37.69
2023-04-18T04:09:20.439Z,37.25
2023-04-18T04:14:24.764Z,36.81
2023-04-18T04:19:29.503Z,36.90
2023-04-18T04:24:53.276Z,36.81
2023-04-18T04:30:04.360Z,36.32
2023-04-18T04:35:08.719Z,36.45
2023-04-18T04:40:12.033Z,36.25
2023-04-18T04:45:33.366Z,35.91
2023-04-18T04:50:37.909Z,35.86
2023-04-18T04:55:41.612Z,35.44
2023-04-18T05:00:44.460Z,35.42
2023-04-18T05:05:48.153Z,35.48
2023-04-18T05:10:51.329Z,35.30
2023-04-18T05:15:54.225Z,34.91
2023-04-18T05:20:57.396Z,34.86
2023-04-18T05:26:00.865Z,34.74
2023-04-18T05:31:23.165Z,34.47
2023-04-18T05:36:26.961Z,33.84
2023-04-18T05:41:29.854Z,33.22
2023-04-18T05:46:33.193Z,32.70
2023-04-18T05:51:54.817Z,32.88
2023-04-18T05:56:57.762Z,32.57
2023-04-18T06:02:01.028Z,32.46
2023-04-18T06:07:25.299Z,32.65
2023-04-18T06:12:28.272Z,33.17
2023-04-18T06:17:31.221Z,32.92
2023-04-18T06:22:36.905Z,32.86
2023-04-18T06:27:40.039Z,32.49
2023-04-18T06:32:43.792Z,31.91
2023-04-18T06:37:46.952Z,31.93
2023-04-18T06:42:49.928Z,31.60
2023-04-18T06:47:53.755Z,30.76
2023-04-18T06:52:56.626Z,30.51
2023-04-18T06:58:00.725Z,29.84
2023-04-18T07:03:11.427Z,29.86
2023-04-18T07:08:15.579Z,29.70
2023-04-18T07:13:18.643Z,29.66
2023-04-18T07:18:34.167Z,29.44
2023-04-18T07:23:58.833Z,29.10
2023-04-18T07:29:01.804Z,28.29
2023-04-18T07:34:05.211Z,27.96
2023-04-18T07:39:08.422Z,28.17
2023-04-18T07:44:11.628Z,27.52
2023-04-18T07:49:14.875Z,27.40
2023-04-18T07:54:18.033Z,26.99
2023-04-18T07:59:21.301Z,26.64
2023-04-18T08:04:26.890Z,26.64
2023-04-18T08:09:49.920Z,27.34
2023-04-18T08:14:52.914Z,26.60
2023-04-18T08:19:56.022Z,26.31
2023-04-18T08:25:04.901Z,26.19
2023-04-18T08:30:09.994Z,25.98
2023-04-18T08:35:13.242Z,26.06
2023-04-18T08:40:17.094Z,25.96
2023-04-18T08:45:21.079Z,25.51
2023-04-18T08:50:24.028Z,24.93
2023-04-18T08:55:26.958Z,24.42
2023-04-18T09:00:30.688Z,24.50
2023-04-18T09:05:33.925Z,24.29
2023-04-18T09:10:38.569Z,24.49
2023-04-18T09:15:43.365Z,24.37
2023-04-18T09:20:47.836Z,24.33
2023-04-18T09:25:52.482Z,24.01
2023-04-18T09:31:15.451Z,23.80
2023-04-18T09:36:37.632Z,24.23
2023-04-18T09:41:40.643Z,23.39
2023-04-18T09:46:47.135Z,22.83
2023-04-18T09:51:56.809Z,22.93
2023-04-18T09:57:03.129Z,23.07
2023-04-18T10:02:10.298Z,22.92
2023-04-18T10:07:32.610Z,22.75
2023-04-18T10:12:37.695Z,22.29
2023-04-18T10:18:04.555Z,22.39
2023-04-18T10:23:35.160Z,21.73
2023-04-18T10:28:55.195Z,21.57
2023-04-18T10:34:05.240Z,21.59
2023-04-18T10:39:23.327Z,21.60
2023-04-18T10:44:27.225Z,21.07
2023-04-18T10:49:34.074Z,21.55
2023-04-18T10:54:58.424Z,21.25
2023-04-18T11:00:02.868Z,21.49
2023-04-18T11:05:08.565Z,21.00
2023-04-18T11:10:12.383Z,21.23
2023-04-18T11:15:21.604Z,20.36
2023-04-18T11:20:25.223Z,19.58
2023-04-18T11:25:30.815Z,19.43
2023-04-18T11:30:43.158Z,19.60
2023-04-18T11:35:46.891Z,19.57
2023-04-18T11:40:51.242Z,19.56
2023-04-18T11:46:13.707Z,19.94
2023-04-18T11:51:34.836Z,19.91
2023-04-18T11:56:47.397Z,18.97
2023-04-18T12:02:14.923Z,18.77
2023-04-18T12:07:45.968Z,19.42
2023-04-18T12:12:50.729Z,18.65
2023-04-18T12:18:01.276Z,18.65
2023-04-18T12:23:04.775Z,18.55
2023-04-18T12:28:15.977Z,18.32
2023-04-18T12:33:19.809Z,18.14
2023-04-18T12:38:23.775Z,18.03
2023-04-18T12:43:26.944Z,18.19
2023-04-18T12:48:29.964Z,18.18
2023-04-18T12:53:33.004Z,18.47
2023-04-18T12:58:54.562Z,18.12
2023-04-18T13:04:08.803Z,17.98
2023-04-18T13:09:34.378Z,17.83
2023-04-18T13:14:37.304Z,18.60
2023-04-18T13:19:40.518Z,18.65
2023-04-18T13:24:43.530Z,19.27
2023-04-18T13:29:46.736Z,19.11
2023-04-18T13:34:49.791Z,19.30
2023-04-18T13:39:52.725Z,19.28
2023-04-18T13:44:55.590Z,19.54
2023-04-18T13:49:58.631Z,19.65
2023-04-18T13:55:01.556Z,19.73
2023-04-18T14:00:09.414Z,19.73
2023-04-18T14:05:16.652Z,19.79
2023-04-18T14:10:21.842Z,19.69
2023-04-18T14:15:25.006Z,19.99
2023-04-18T14:20:34.435Z,19.97
2023-04-18T14:25:37.331Z,20.18
2023-04-18T14:30:40.687Z,19.69
2023-04-18T14:35:44.196Z,19.67
2023-04-18T14:40:47.348Z,19.71
2023-04-18T14:45:50.216Z,20.30
2023-04-18T14:50:57.454Z,20.56
2023-04-18T14:56:00.302Z,21.18
2023-04-18T15:01:04.318Z,21.35
2023-04-18T15:06:07.471Z,21.58
2023-04-18T15:11:10.931Z,21.86
2023-04-18T15:16:14.006Z,22.51
2023-04-18T15:21:17.197Z,23.06
2023-04-18T15:26:20.210Z,23.39
2023-04-18T15:31:23.668Z,23.65
2023-04-18T15:36:27.872Z,23.85
2023-04-18T15:41:31.269Z,24.15
2023-04-18T15:46:34.952Z,24.32
2023-04-18T15:51:38.185Z,24.51
2023-04-18T15:56:59.696Z,24.67
2023-04-18T16:02:02.783Z,25.06
2023-04-18T16:07:06.621Z,25.27
2023-04-18T16:12:09.537Z,25.48
2023-04-18T16:17:12.768Z,25.84
2023-04-18T16:22:15.765Z,25.93
2023-04-18T16:27:18.610Z,26.11
2023-04-18T16:32:21.569Z,26.25
2023-04-18T16:37:24.609Z,26.38
2023-04-18T16:42:27.569Z,26.64
2023-04-18T16:47:30.818Z,26.95
2023-04-18T16:52:52.077Z,27.08
2023-04-18T16:57:54.813Z,27.28
2023-04-18T17:02:58.418Z,27.45
2023-04-18T17:08:01.452Z,27.40
2023-04-18T17:13:04.637Z,27.57
2023-04-18T17:18:07.746Z,27.64
2023-04-18T17:23:30.956Z,27.74
2023-04-18T17:28:36.692Z,27.91
2023-04-18T17:33:39.793Z,27.98
2023-04-18T17:38:49.084Z,28.22
2023-04-18T17:43:52.155Z,28.30
2023-04-18T17:48:55.095Z,28.50
2023-04-18T17:53:58.081Z,29.07
2023-04-18T17:59:01.398Z,29.09
2023-04-18T18:04:04.522Z,29.26
2023-04-18T18:09:25.918Z,29.27
2023-04-18T18:14:28.871Z,29.20
2023-04-18T18:19:32.065Z,29.89
2023-04-18T18:24:53.758Z,30.47
2023-04-18T18:30:15.083Z,30.48
2023-04-18T18:35:18.100Z,30.66
2023-04-18T18:40:21.486Z,30.96
2023-04-18T18:45:24.603Z,31.19
2023-04-18T18:50:27.350Z,30.94
2023-04-18T18:55:30.536Z,30.80
2023-04-18T19:00:33.533Z,30.44
2023-04-18T19:05:36.921Z,30.63
2023-04-18T19:10:39.880Z,30.77
2023-04-18T19:15:42.833Z,30.96
2023-04-18T19:20:46.636Z,31.27
2023-04-18T19:25:49.565Z,31.43
2023-04-18T19:30:53.319Z,31.73
2023-04-18T19:35:56.590Z,32.05
2023-04-18T19:40:59.562Z,32.19
2023-04-18T19:46:02.744Z,32.34
2023-04-18T19:51:05.757Z,32.48
2023-04-18T19:56:11.321Z,32.56
2023-04-18T20:01:19.026Z,32.65
2023-04-18T20:06:22.285Z,32.79
2023-04-18T20:11:25.181Z,32.90
2023-04-18T20:16:28.149Z,32.99
2023-04-18T20:21:31.432Z,33.06
2023-04-18T20:26:34.301Z,33.00
2023-04-18T20:31:42.116Z,33.14
2023-04-18T20:36:46.906Z,33.27
2023-04-18T20:41:51.038Z,33.43
2023-04-18T20:46:53.888Z,33.54
2023-04-18T20:51:56.860Z,33.80
2023-04-18T20:57:00.347Z,34.00
2023-04-18T21:02:03.823Z,34.12
2023-04-18T21:07:06.660Z,34.25
2023-04-18T21:12:09.373Z,34.42
2023-04-18T21:17:17.168Z,34.58
2023-04-18T21:22:20.135Z,34.58
2023-04-18T21:27:23.002Z,34.74
2023-04-18T21:32:26.002Z,34.83
2023-04-18T21:37:47.554Z,34.94
2023-04-18T21:42:53.260Z,35.25
2023-04-18T21:47:56.275Z,35.19
2023-04-18T21:52:59.124Z,35.45
2023-04-18T21:58:02.319Z,35.62
2023-04-18T22:03:05.409Z,35.77
2023-04-18T22:08:08.477Z,35.86
2023-04-18T22:13:11.632Z,35.87
2023-04-18T22:18:14.756Z,35.92
2023-04-18T22:23:17.620Z,35.96
2023-04-18T22:28:39.277Z,35.90
2023-04-18T22:33:42.197Z,36.01
2023-04-18T22:38:45.116Z,36.27
2023-04-18T22:43:48.035Z,36.42
2023-04-18T22:48:50.909Z,36.80
2023-04-18T22:53:53.793Z,37.15
2023-04-18T22:58:57.083Z,37.82
2023-04-18T23:04:00.008Z,38.24
2023-04-18T23:09:04.408Z,38.55
2023-04-18T23:14:08.858Z,38.69
2023-04-18T23:19:11.806Z,38.80
2023-04-18T23:24:14.973Z,38.96
2023-04-18T23:29:18.109Z,39.26
2023-04-18T23:34:20.933Z,39.62
2023-04-18T23:39:26.149Z,40.22
2023-04-18T23:44:29.119Z,41.02
2023-04-18T23:49:32.053Z,41.08
2023-04-18T23:54:35.085Z,40.46
2023-04-18T23:59:38.247Z,42.02
